createdAt,value
2018-05-11T00:00:08.495Z,22.98
2018-05-11T00:02:35.158Z,22.95
2018-05-11T00:05:01.761Z,22.98
2018-05-11T00:07:28.482Z,22.89
2018-05-11T00:09:55.090Z,22.98
2018-05-11T00:12:21.762Z,22.95
2018-05-11T00:14:48.437Z,22.96
2018-05-11T00:17:15.160Z,22.90
2018-05-11T00:19:41.824Z,22.93
2018-05-11T00:22:08.426Z,22.93
2018-05-11T00:24:35.102Z,22.91
2018-05-11T00:27:01.746Z,22.92
2018-05-11T00:29:28.411Z,22.89
2018-05-11T00:31:55.053Z,22.85
2018-05-11T00:34:21.668Z,22.90
2018-05-11T00:36:48.304Z,22.88
2018-05-11T00:39:14.982Z,22.82
2018-05-11T00:41:41.580Z,22.83
2018-05-11T00:44:08.218Z,22.82
2018-05-11T00:46:34.854Z,22.82
2018-05-11T00:49:01.495Z,22.81
2018-05-11T00:51:28.167Z,22.79
2018-05-11T00:53:54.838Z,22.77
2018-05-11T00:56:21.450Z,22.77
2018-05-11T00:58:48.132Z,22.78
2018-05-11T01:01:14.744Z,22.83
2018-05-11T01:03:41.400Z,22.77
2018-05-11T01:06:08.036Z,22.72
2018-05-11T01:08:34.650Z,22.77
2018-05-11T01:11:01.332Z,22.77
2018-05-11T01:13:27.970Z,22.74
2018-05-11T01:15:54.711Z,22.76
2018-05-11T01:18:21.345Z,22.77
2018-05-11T01:20:48.003Z,22.70
2018-05-11T01:23:14.680Z,22.73
2018-05-11T01:25:41.324Z,22.75
2018-05-11T01:28:07.934Z,22.70
2018-05-11T01:30:34.562Z,22.63
2018-05-11T01:33:01.201Z,22.66
2018-05-11T01:35:27.871Z,22.67
2018-05-11T01:37:54.505Z,22.62
2018-05-11T01:40:21.129Z,22.62
2018-05-11T01:42:47.764Z,22.63
2018-05-11T01:45:14.401Z,22.65
2018-05-11T01:47:41.032Z,22.65
2018-05-11T01:50:07.670Z,22.68
2018-05-11T01:52:34.347Z,22.64
2018-05-11T01:55:00.959Z,22.61
2018-05-11T01:57:27.593Z,22.62
2018-05-11T01:59:54.242Z,22.60
2018-05-11T02:02:20.878Z,22.61
2018-05-11T02:04:47.562Z,22.59
2018-05-11T02:07:14.203Z,22.61
2018-05-11T02:09:40.826Z,22.62
2018-05-11T02:12:07.476Z,22.60
2018-05-11T02:14:34.112Z,22.61
2018-05-11T02:17:00.717Z,22.55
2018-05-11T02:19:27.387Z,22.58
2018-05-11T02:21:54.031Z,22.58
2018-05-11T02:24:20.631Z,22.58
2018-05-11T02:26:47.276Z,22.56
2018-05-11T02:29:13.935Z,22.58
2018-05-11T02:31:40.541Z,22.57
2018-05-11T02:34:07.209Z,22.61
2018-05-11T02:36:33.864Z,22.56
2018-05-11T02:39:00.499Z,22.53
2018-05-11T02:41:27.100Z,22.58
2018-05-11T02:43:53.776Z,22.53
2018-05-11T02:46:20.410Z,22.48
2018-05-11T02:48:47.049Z,22.55
2018-05-11T02:51:13.651Z,22.52
2018-05-11T02:53:40.285Z,22.46
2018-05-11T02:56:06.923Z,22.54
2018-05-11T02:58:33.582Z,22.48
2018-05-11T03:01:00.216Z,22.55
2018-05-11T03:03:26.889Z,22.51
2018-05-11T03:05:53.632Z,22.51
2018-05-11T03:08:20.268Z,22.48
2018-05-11T03:10:46.884Z,22.49
2018-05-11T03:13:13.514Z,22.49
2018-05-11T03:15:40.148Z,22.36
2018-05-11T03:18:06.812Z,22.26
2018-05-11T03:20:33.453Z,22.25
2018-05-11T03:23:00.131Z,22.21
2018-05-11T03:25:26.713Z,22.19
2018-05-11T03:27:53.466Z,22.21
2018-05-11T03:30:20.105Z,22.21
2018-05-11T03:32:46.709Z,22.28
2018-05-11T03:35:13.350Z,22.21
2018-05-11T03:37:40.019Z,22.23
2018-05-11T03:40:06.655Z,22.16
2018-05-11T03:42:33.261Z,22.14
2018-05-11T03:44:59.943Z,22.20
2018-05-11T03:47:26.579Z,22.15
2018-05-11T03:49:53.183Z,22.17
2018-05-11T03:52:19.861Z,22.12
2018-05-11T03:54:47.812Z,22.10
2018-05-11T03:57:13.113Z,22.13
2018-05-11T03:59:39.778Z,22.27
2018-05-11T04:02:06.427Z,22.38
2018-05-11T04:04:33.059Z,22.22
2018-05-11T04:06:59.696Z,22.38
2018-05-11T04:09:26.341Z,22.31
2018-05-11T04:11:52.933Z,22.31
2018-05-11T04:14:19.604Z,22.48
2018-05-11T04:16:46.234Z,22.44
2018-05-11T04:19:12.840Z,22.49
2018-05-11T04:21:39.478Z,22.54
2018-05-11T04:24:06.159Z,22.52
2018-05-11T04:26:32.968Z,22.52
2018-05-11T04:28:59.617Z,22.65
2018-05-11T04:31:26.259Z,22.55
2018-05-11T04:33:52.909Z,22.55
2018-05-11T04:36:19.548Z,22.66
2018-05-11T04:38:46.147Z,22.47
2018-05-11T04:41:14.965Z,22.46
2018-05-11T04:43:39.428Z,22.43
2018-05-11T04:46:06.143Z,22.47
2018-05-11T04:48:32.787Z,22.48
2018-05-11T04:50:59.387Z,22.51
2018-05-11T04:53:26.033Z,22.50
2018-05-11T04:55:52.703Z,22.52
2018-05-11T04:58:19.300Z,22.48
2018-05-11T05:00:45.945Z,22.48
2018-05-11T05:03:12.614Z,22.42
2018-05-11T05:05:39.209Z,22.47
2018-05-11T05:08:05.892Z,22.51
2018-05-11T05:10:32.525Z,22.55
2018-05-11T05:12:59.164Z,22.55
2018-05-11T05:15:25.764Z,22.66
2018-05-11T05:17:52.396Z,22.53
2018-05-11T05:20:19.067Z,22.57
2018-05-11T05:22:45.716Z,22.78
2018-05-11T05:25:12.354Z,22.71
2018-05-11T05:27:38.957Z,22.72
2018-05-11T05:30:05.615Z,22.83
2018-05-11T05:32:32.256Z,22.69
2018-05-11T05:34:58.866Z,22.67
2018-05-11T05:37:25.520Z,22.70
2018-05-11T05:39:52.171Z,22.69
2018-05-11T05:42:18.855Z,22.84
2018-05-11T05:44:45.478Z,22.73
2018-05-11T05:47:12.161Z,22.80
2018-05-11T05:49:38.786Z,22.92
2018-05-11T05:52:05.490Z,22.93
2018-05-11T05:54:32.059Z,23.05
2018-05-11T05:56:58.747Z,23.20
2018-05-11T05:59:26.592Z,23.10
2018-05-11T06:01:53.260Z,23.04
2018-05-11T06:04:19.906Z,23.01
2018-05-11T06:06:46.596Z,23.15
2018-05-11T06:09:13.239Z,23.15
2018-05-11T06:11:39.941Z,23.06
2018-05-11T06:14:06.632Z,23.00
2018-05-11T06:16:33.357Z,22.96
2018-05-11T06:19:00.016Z,23.00
2018-05-11T06:21:26.616Z,23.00
2018-05-11T06:23:53.289Z,22.98
2018-05-11T06:26:19.894Z,23.17
2018-05-11T06:28:46.572Z,23.12
2018-05-11T06:31:13.313Z,23.10
2018-05-11T06:33:39.917Z,23.14
2018-05-11T06:36:06.594Z,23.14
2018-05-11T06:38:33.329Z,23.17
2018-05-11T06:41:02.093Z,23.30
2018-05-11T06:43:32.144Z,23.36
2018-05-11T06:45:58.873Z,23.33
2018-05-11T06:48:25.459Z,23.40
2018-05-11T06:50:52.186Z,23.34
2018-05-11T06:53:18.781Z,23.38
2018-05-11T06:55:45.483Z,23.38
2018-05-11T06:58:12.139Z,23.39
2018-05-11T07:00:38.812Z,23.46
2018-05-11T07:03:05.507Z,23.44
2018-05-11T07:05:32.146Z,23.42
2018-05-11T07:07:58.901Z,23.48
2018-05-11T07:10:25.425Z,23.43
2018-05-11T07:12:52.166Z,23.46
2018-05-11T07:15:18.830Z,23.47
2018-05-11T07:17:45.458Z,23.46
2018-05-11T07:20:12.097Z,23.49
2018-05-11T07:22:38.728Z,23.50
2018-05-11T07:25:05.366Z,23.57
2018-05-11T07:27:32.030Z,23.77
2018-05-11T07:29:58.672Z,23.64
2018-05-11T07:32:25.344Z,23.57
2018-05-11T07:34:52.095Z,23.55
2018-05-11T07:37:18.696Z,23.53
2018-05-11T07:39:45.418Z,23.52
2018-05-11T07:42:12.033Z,23.59
2018-05-11T07:44:38.684Z,23.56
2018-05-11T07:47:05.319Z,23.55
2018-05-11T07:49:32.074Z,23.73
2018-05-11T07:51:58.673Z,23.73
2018-05-11T07:54:25.364Z,23.75
2018-05-11T07:56:52.006Z,23.73
2018-05-11T07:59:18.638Z,23.85
2018-05-11T08:01:45.630Z,23.78
2018-05-11T08:04:12.263Z,23.84
2018-05-11T08:06:38.906Z,23.87
2018-05-11T08:09:05.851Z,23.92
2018-05-11T08:11:32.530Z,23.96
2018-05-11T08:13:59.131Z,24.00
2018-05-11T08:16:25.985Z,24.01
2018-05-11T08:18:52.726Z,24.13
2018-05-11T08:21:19.757Z,24.10
2018-05-11T08:23:46.308Z,24.10
2018-05-11T08:26:12.954Z,24.24
2018-05-11T08:28:39.600Z,24.18
2018-05-11T08:31:06.269Z,24.23
2018-05-11T08:33:32.894Z,24.24
2018-05-11T08:35:59.625Z,24.26
2018-05-11T08:38:26.175Z,24.24
2018-05-11T08:40:52.858Z,24.22
2018-05-11T08:43:19.501Z,24.28
2018-05-11T08:45:46.134Z,24.33
2018-05-11T08:48:12.777Z,24.37
2018-05-11T08:50:39.517Z,24.41
2018-05-11T08:53:06.154Z,24.38
2018-05-11T08:55:32.916Z,24.34
2018-05-11T08:57:59.601Z,24.40
2018-05-11T09:00:26.253Z,24.36
2018-05-11T09:02:52.941Z,24.38
2018-05-11T09:05:19.609Z,24.38
2018-05-11T09:07:46.332Z,24.40
2018-05-11T09:10:12.942Z,24.39
2018-05-11T09:12:39.574Z,24.41
2018-05-11T09:15:06.254Z,24.39
2018-05-11T09:17:32.919Z,24.37
2018-05-11T09:19:59.681Z,24.40
2018-05-11T09:22:26.287Z,24.51
2018-05-11T09:24:53.007Z,24.49
2018-05-11T09:27:19.654Z,24.59
2018-05-11T09:29:46.280Z,24.59
2018-05-11T09:32:12.915Z,24.61
2018-05-11T09:34:39.593Z,24.61
2018-05-11T09:37:06.232Z,24.58
2018-05-11T09:39:32.948Z,24.10
2018-05-11T09:41:59.551Z,24.31
2018-05-11T09:44:26.190Z,24.28
2018-05-11T09:46:52.821Z,24.31
2018-05-11T09:49:19.556Z,24.42
2018-05-11T09:51:46.174Z,24.40
2018-05-11T09:54:12.786Z,24.20
2018-05-11T09:56:39.572Z,24.20
2018-05-11T09:59:06.190Z,24.22
2018-05-11T10:01:32.959Z,24.07
2018-05-11T10:03:59.593Z,23.98
2018-05-11T10:06:29.360Z,24.02
2018-05-11T10:08:55.977Z,24.00
2018-05-11T10:11:22.753Z,23.96
2018-05-11T10:13:49.463Z,23.94
2018-05-11T10:16:16.031Z,24.06
2018-05-11T10:18:42.712Z,23.97
2018-05-11T10:21:09.452Z,23.90
2018-05-11T10:23:36.111Z,24.16
2018-05-11T10:26:02.809Z,24.05
2018-05-11T10:28:29.479Z,24.02
2018-05-11T10:30:56.120Z,24.11
2018-05-11T10:33:22.778Z,24.05
2018-05-11T10:35:49.480Z,24.08
2018-05-11T10:38:16.112Z,24.24
2018-05-11T10:40:42.754Z,24.30
2018-05-11T10:43:09.403Z,24.35
2018-05-11T10:45:36.076Z,24.31
2018-05-11T10:48:02.716Z,24.12
2018-05-11T10:50:29.318Z,24.24
2018-05-11T10:52:55.967Z,24.13
2018-05-11T10:55:22.658Z,24.13
2018-05-11T10:57:49.293Z,24.10
2018-05-11T11:00:15.926Z,24.04
2018-05-11T11:02:42.630Z,24.11
2018-05-11T11:05:09.270Z,24.11
2018-05-11T11:07:36.019Z,24.17
2018-05-11T11:10:02.699Z,24.08
2018-05-11T11:12:29.390Z,24.06
2018-05-11T11:14:56.061Z,23.99
2018-05-11T11:17:22.716Z,24.11
2018-05-11T11:19:49.330Z,24.11
2018-05-11T11:22:16.008Z,24.13
2018-05-11T11:24:42.703Z,24.00
2018-05-11T11:27:09.396Z,24.12
2018-05-11T11:29:36.081Z,24.31
2018-05-11T11:32:02.683Z,24.28
2018-05-11T11:34:30.457Z,24.28
2018-05-11T11:36:57.058Z,24.34
2018-05-11T11:39:24.690Z,24.18
2018-05-11T11:41:51.389Z,24.32
2018-05-11T11:44:18.020Z,24.23
2018-05-11T11:46:44.624Z,24.20
2018-05-11T11:49:11.313Z,24.35
2018-05-11T11:51:38.412Z,24.32
2018-05-11T11:54:05.052Z,24.25
2018-05-11T11:56:31.748Z,24.26
2018-05-11T11:58:58.397Z,24.33
2018-05-11T12:01:25.130Z,24.34
2018-05-11T12:03:51.769Z,24.32
2018-05-11T12:06:18.500Z,24.30
2018-05-11T12:08:45.179Z,24.21
2018-05-11T12:11:11.851Z,24.35
2018-05-11T12:13:38.497Z,24.27
2018-05-11T12:16:05.099Z,24.33
2018-05-11T12:18:31.783Z,24.23
2018-05-11T12:20:58.428Z,24.24
2018-05-11T12:23:25.139Z,24.44
2018-05-11T12:25:51.733Z,24.54
2018-05-11T12:28:20.465Z,24.67
2018-05-11T12:30:45.040Z,24.51
2018-05-11T12:33:11.693Z,24.10
2018-05-11T12:35:38.466Z,24.30
2018-05-11T12:38:05.119Z,24.33
2018-05-11T12:40:31.855Z,24.41
2018-05-11T12:42:58.506Z,24.53
2018-05-11T12:45:26.387Z,24.53
2018-05-11T12:47:51.825Z,24.64
2018-05-11T12:50:18.511Z,24.55
2018-05-11T12:52:45.211Z,24.60
2018-05-11T12:55:11.861Z,24.55
2018-05-11T12:57:38.527Z,24.58
2018-05-11T13:00:05.131Z,24.68
2018-05-11T13:02:31.775Z,24.44
2018-05-11T13:04:58.491Z,24.05
2018-05-11T13:07:25.122Z,24.24
2018-05-11T13:09:51.759Z,24.38
2018-05-11T13:12:18.458Z,24.41
2018-05-11T13:14:45.058Z,24.44
2018-05-11T13:17:11.691Z,24.56
2018-05-11T13:19:38.650Z,24.56
2018-05-11T13:22:05.328Z,24.65
2018-05-11T13:24:33.097Z,24.13
2018-05-11T13:26:59.728Z,23.85
2018-05-11T13:29:27.418Z,24.09
2018-05-11T13:31:53.037Z,24.18
2018-05-11T13:34:19.676Z,24.26
2018-05-11T13:36:46.313Z,24.43
2018-05-11T13:39:12.971Z,24.46
2018-05-11T13:41:39.629Z,24.46
2018-05-11T13:44:06.252Z,24.40
2018-05-11T13:46:32.886Z,24.42
2018-05-11T13:48:59.577Z,24.55
2018-05-11T13:51:26.180Z,24.55
2018-05-11T13:53:52.816Z,24.55
2018-05-11T13:56:19.571Z,24.55
2018-05-11T13:58:46.148Z,24.62
2018-05-11T14:01:12.743Z,24.71
2018-05-11T14:03:39.475Z,24.58
2018-05-11T14:06:06.082Z,24.64
2018-05-11T14:08:32.689Z,24.49
2018-05-11T14:10:59.356Z,24.38
2018-05-11T14:13:25.955Z,24.42
2018-05-11T14:15:52.605Z,24.49
2018-05-11T14:18:19.296Z,24.48
2018-05-11T14:20:45.914Z,24.52
2018-05-11T14:23:12.584Z,24.51
2018-05-11T14:25:39.247Z,24.55
2018-05-11T14:28:05.879Z,24.63
2018-05-11T14:30:32.555Z,24.68
2018-05-11T14:32:59.697Z,24.64
2018-05-11T14:35:26.339Z,24.67
2018-05-11T14:37:53.081Z,24.66
2018-05-11T14:40:19.722Z,24.71
2018-05-11T14:42:46.409Z,24.69
2018-05-11T14:45:13.123Z,24.74
2018-05-11T14:47:39.762Z,24.73
2018-05-11T14:50:06.416Z,24.73
2018-05-11T14:52:33.620Z,24.82
2018-05-11T14:55:00.222Z,24.83
2018-05-11T14:57:26.895Z,24.77
2018-05-11T14:59:53.498Z,24.67
2018-05-11T15:02:20.170Z,24.59
2018-05-11T15:04:46.805Z,24.63
2018-05-11T15:07:13.480Z,24.68
2018-05-11T15:09:40.086Z,24.61
2018-05-11T15:12:06.724Z,24.64
2018-05-11T15:14:33.412Z,24.66
2018-05-11T15:17:00.140Z,24.69
2018-05-11T15:19:26.743Z,24.68
2018-05-11T15:21:53.394Z,24.57
2018-05-11T15:24:20.061Z,24.57
2018-05-11T15:26:46.694Z,24.60
2018-05-11T15:29:13.361Z,24.56
2018-05-11T15:31:40.012Z,24.56
2018-05-11T15:34:06.646Z,24.57
2018-05-11T15:36:33.283Z,24.55
2018-05-11T15:38:59.889Z,24.57
2018-05-11T15:41:26.557Z,24.62
2018-05-11T15:43:53.186Z,24.56
2018-05-11T15:46:19.815Z,24.50
2018-05-11T15:48:46.492Z,24.51
2018-05-11T15:51:13.097Z,24.49
2018-05-11T15:53:39.819Z,24.51
2018-05-11T15:56:06.451Z,24.49
2018-05-11T15:58:33.048Z,24.47
2018-05-11T16:00:59.725Z,24.52
2018-05-11T16:03:26.322Z,24.50
2018-05-11T16:05:52.988Z,24.47
2018-05-11T16:08:19.624Z,24.44
2018-05-11T16:10:46.331Z,24.39
2018-05-11T16:13:12.957Z,24.38
2018-05-11T16:15:39.634Z,24.46
2018-05-11T16:18:06.267Z,24.40
2018-05-11T16:20:32.912Z,24.35
2018-05-11T16:22:59.513Z,24.34
2018-05-11T16:25:26.181Z,24.35
2018-05-11T16:27:52.904Z,24.32
2018-05-11T16:30:19.571Z,24.28
2018-05-11T16:32:46.183Z,24.34
2018-05-11T16:35:12.809Z,24.32
2018-05-11T16:37:39.473Z,24.22
2018-05-11T16:40:06.117Z,24.16
2018-05-11T16:42:32.791Z,24.24
2018-05-11T16:44:59.398Z,24.24
2018-05-11T16:47:26.074Z,24.23
2018-05-11T16:49:52.718Z,24.20
2018-05-11T16:52:19.359Z,24.22
2018-05-11T16:54:46.079Z,24.24
2018-05-11T16:57:12.707Z,24.23
2018-05-11T16:59:39.308Z,24.22
2018-05-11T17:02:05.957Z,24.21
2018-05-11T17:04:32.617Z,24.21
2018-05-11T17:06:59.223Z,24.22
2018-05-11T17:09:25.944Z,24.21
2018-05-11T17:11:52.562Z,24.14
2018-05-11T17:14:19.237Z,24.09
2018-05-11T17:16:45.839Z,24.08
2018-05-11T17:19:12.509Z,24.09
2018-05-11T17:21:39.130Z,24.12
2018-05-11T17:24:05.767Z,24.09
2018-05-11T17:26:32.368Z,24.09
2018-05-11T17:28:59.006Z,24.09
2018-05-11T17:31:25.685Z,24.06
2018-05-11T17:33:52.287Z,24.01
2018-05-11T17:36:18.967Z,24.00
2018-05-11T17:38:45.599Z,24.00
2018-05-11T17:41:12.252Z,23.99
2018-05-11T17:43:38.894Z,23.92
2018-05-11T17:46:05.520Z,23.96
2018-05-11T17:48:32.145Z,23.98
2018-05-11T17:50:58.793Z,23.91
2018-05-11T17:53:25.468Z,24.01
2018-05-11T17:55:52.066Z,23.92
2018-05-11T17:58:18.757Z,23.84
2018-05-11T18:00:45.359Z,23.85
2018-05-11T18:03:12.092Z,23.84
2018-05-11T18:05:38.626Z,23.87
2018-05-11T18:08:05.304Z,23.83
2018-05-11T18:10:31.967Z,23.81
2018-05-11T18:12:58.608Z,23.79
2018-05-11T18:15:25.204Z,23.79
2018-05-11T18:17:51.881Z,23.80
2018-05-11T18:20:18.479Z,23.77
2018-05-11T18:22:45.118Z,23.81
2018-05-11T18:25:11.780Z,23.73
2018-05-11T18:27:38.424Z,23.76
2018-05-11T18:30:05.096Z,23.82
2018-05-11T18:32:31.722Z,23.67
2018-05-11T18:34:58.365Z,23.74
2018-05-11T18:37:24.973Z,23.71
2018-05-11T18:39:51.646Z,23.70
2018-05-11T18:42:18.276Z,23.66
2018-05-11T18:44:44.952Z,23.65
2018-05-11T18:47:11.579Z,23.65
2018-05-11T18:49:38.186Z,23.60
2018-05-11T18:52:04.814Z,23.62
2018-05-11T18:54:31.864Z,23.66
2018-05-11T18:56:58.083Z,23.65
2018-05-11T18:59:24.721Z,23.54
2018-05-11T19:01:51.349Z,23.63
2018-05-11T19:04:18.021Z,23.59
2018-05-11T19:06:44.653Z,23.54
2018-05-11T19:09:11.324Z,23.50
2018-05-11T19:11:37.959Z,23.56
2018-05-11T19:14:04.591Z,23.57
2018-05-11T19:16:31.184Z,23.48
2018-05-11T19:18:57.898Z,23.48
2018-05-11T19:21:24.652Z,23.48
2018-05-11T19:23:51.289Z,23.49
2018-05-11T19:26:17.901Z,23.40
2018-05-11T19:28:44.566Z,23.38
2018-05-11T19:31:11.175Z,23.47
2018-05-11T19:33:37.843Z,23.47
2018-05-11T19:36:04.444Z,23.38
2018-05-11T19:38:31.118Z,23.36
2018-05-11T19:40:57.715Z,23.39
2018-05-11T19:43:24.392Z,23.34
2018-05-11T19:45:51.027Z,23.36
2018-05-11T19:48:17.630Z,23.30
2018-05-11T19:50:44.323Z,23.29
2018-05-11T19:53:10.939Z,23.29
2018-05-11T19:55:37.589Z,23.26
2018-05-11T19:58:04.260Z,23.21
2018-05-11T20:00:30.932Z,23.22
2018-05-11T20:02:57.570Z,23.17
2018-05-11T20:05:24.246Z,23.23
2018-05-11T20:07:50.894Z,23.22
2018-05-11T20:10:17.642Z,23.25
2018-05-11T20:12:44.328Z,23.18
2018-05-11T20:15:10.936Z,23.11
2018-05-11T20:17:37.574Z,23.05
2018-05-11T20:20:04.211Z,23.12
2018-05-11T20:22:30.884Z,23.15
2018-05-11T20:24:57.550Z,23.14
2018-05-11T20:27:24.175Z,23.18
2018-05-11T20:29:50.821Z,23.14
2018-05-11T20:32:17.533Z,23.10
2018-05-11T20:34:44.126Z,23.05
2018-05-11T20:37:10.838Z,23.07
2018-05-11T20:39:37.443Z,23.10
2018-05-11T20:42:04.103Z,23.03
2018-05-11T20:44:30.706Z,23.07
2018-05-11T20:46:57.377Z,22.96
2018-05-11T20:49:24.014Z,22.97
2018-05-11T20:51:50.679Z,23.01
2018-05-11T20:54:17.285Z,22.96
2018-05-11T20:56:43.955Z,22.93
2018-05-11T20:59:10.609Z,22.95
2018-05-11T21:01:37.264Z,22.89
2018-05-11T21:04:03.923Z,22.92
2018-05-11T21:06:30.563Z,22.94
2018-05-11T21:08:57.168Z,22.97
2018-05-11T21:11:23.848Z,22.96
2018-05-11T21:13:50.517Z,22.88
2018-05-11T21:16:17.203Z,22.90
2018-05-11T21:18:43.794Z,22.92
2018-05-11T21:21:10.462Z,22.88
2018-05-11T21:23:37.139Z,22.83
2018-05-11T21:26:03.743Z,22.81
2018-05-11T21:28:30.383Z,22.82
2018-05-11T21:30:57.050Z,22.89
2018-05-11T21:33:23.681Z,22.81
2018-05-11T21:35:50.277Z,22.76
2018-05-11T21:38:16.951Z,22.78
2018-05-11T21:40:43.555Z,22.80
2018-05-11T21:43:10.205Z,22.68
2018-05-11T21:45:36.875Z,22.79
2018-05-11T21:48:03.555Z,22.80
2018-05-11T21:50:30.226Z,22.74
2018-05-11T21:52:56.887Z,22.74
2018-05-11T21:55:23.513Z,22.74
2018-05-11T21:57:50.145Z,22.74
2018-05-11T22:00:16.765Z,22.71
2018-05-11T22:02:43.433Z,22.74
2018-05-11T22:05:10.081Z,22.70
2018-05-11T22:07:36.744Z,22.71
2018-05-11T22:10:03.348Z,22.65
2018-05-11T22:12:30.061Z,22.65
2018-05-11T22:14:56.658Z,22.68
2018-05-11T22:17:23.327Z,22.60
2018-05-11T22:19:49.965Z,22.62
2018-05-11T22:22:16.638Z,22.67
2018-05-11T22:24:43.275Z,22.53
2018-05-11T22:27:09.925Z,22.47
2018-05-11T22:29:36.574Z,22.58
2018-05-11T22:32:03.206Z,22.53
2018-05-11T22:34:29.882Z,22.51
2018-05-11T22:36:56.523Z,22.45
2018-05-11T22:39:23.158Z,22.41
2018-05-11T22:41:49.826Z,22.42
2018-05-11T22:44:16.462Z,22.45
2018-05-11T22:46:43.071Z,22.47
2018-05-11T22:49:09.706Z,22.51
2018-05-11T22:51:36.346Z,22.53
2018-05-11T22:54:03.030Z,22.46
2018-05-11T22:56:29.728Z,22.46
2018-05-11T22:58:56.325Z,22.45
2018-05-11T23:01:23.052Z,22.44
2018-05-11T23:03:49.656Z,22.46
2018-05-11T23:06:16.403Z,22.39
2018-05-11T23:08:43.006Z,22.42
2018-05-11T23:11:09.723Z,22.44
2018-05-11T23:13:36.325Z,22.37
2018-05-11T23:16:02.963Z,22.39
2018-05-11T23:18:29.610Z,22.31
2018-05-11T23:20:56.271Z,22.32
2018-05-11T23:23:22.967Z,22.30
2018-05-11T23:25:49.561Z,22.29
2018-05-11T23:28:16.231Z,22.29
2018-05-11T23:30:42.911Z,22.22
2018-05-11T23:33:09.547Z,22.29
2018-05-11T23:35:36.172Z,22.31
2018-05-11T23:38:02.827Z,22.26
2018-05-11T23:40:29.467Z,22.22
2018-05-11T23:42:56.105Z,22.25
2018-05-11T23:45:22.795Z,22.21
2018-05-11T23:47:49.473Z,22.22
2018-05-11T23:50:16.130Z,22.12
2018-05-11T23:52:42.773Z,22.21
2018-05-11T23:55:09.454Z,22.25
2018-05-11T23:57:36.119Z,22.16
